Time;durP1;ratioP1;P1;durP2;ratioP2;P2;SDS_P1;SDS_P2;PMS_P1;PMS_P2;Temp;Humidity;BMP_temperature;BMP_pressure;BME280_temperature;BME280_humidity;BME280_pressure;Samples;Min_cycle;Max_cycle;Signal;HPM_P1;HPM_P2
2021/10/04 00:00:57;;;;;;;18.17;8.15;;;;;;;16.38;87.33;99137.69;5076003;28;20089;-94
2021/10/04 00:03:24;;;;;;;18.45;9.15;;;;;;;16.27;87.42;99114.97;5076502;28;20056;-93
2021/10/04 00:05:50;;;;;;;16.52;8.05;;;;;;;16.30;87.26;99128.22;5076255;28;20032;-95
2021/10/04 00:08:16;;;;;;;15.68;8.38;;;;;;;16.08;87.29;99096.97;5076051;28;20054;-94
2021/10/04 00:10:41;;;;;;;15.77;8.30;;;;;;;16.13;87.92;99112.88;5076009;28;20494;-92
2021/10/04 00:13:07;;;;;;;22.17;8.63;;;;;;;16.27;88.34;99126.56;5076307;28;20116;-94
2021/10/04 00:15:33;;;;;;;14.57;8.18;;;;;;;16.31;87.53;99124.59;5075720;28;20041;-92
2021/10/04 00:18:00;;;;;;;14.40;7.57;;;;;;;16.28;87.24;99112.19;5076026;28;20059;-94
2021/10/04 00:20:27;;;;;;;16.08;8.07;;;;;;;16.33;87.12;99133.44;5075750;28;20044;-92
2021/10/04 00:22:54;;;;;;;16.98;8.57;;;;;;;16.31;87.28;99124.59;5075553;28;20101;-92
2021/10/04 00:25:20;;;;;;;19.02;8.95;;;;;;;16.28;87.14;99133.66;5076236;28;20032;-92
2021/10/04 00:27:47;;;;;;;16.77;8.65;;;;;;;16.15;87.36;99109.19;5076837;28;20555;-93
2021/10/04 00:30:14;;;;;;;17.25;8.32;;;;;;;16.29;87.63;99148.84;5075964;28;20036;-93
2021/10/04 00:32:43;;;;;;;15.55;8.52;;;;;;;16.25;87.50;99132.94;5076522;28;20032;-94
2021/10/04 00:35:10;;;;;;;15.97;7.83;;;;;;;16.25;87.47;99138.31;5076551;28;20021;-93
2021/10/04 00:37:38;;;;;;;15.40;7.72;;;;;;;16.21;87.48;99125.00;5076306;28;20051;-93
2021/10/04 00:40:07;;;;;;;17.33;8.23;;;;;;;16.22;87.82;99134.81;5076205;28;20046;-93
2021/10/04 00:42:33;;;;;;;15.95;8.32;;;;;;;16.21;88.30;99133.06;5075393;28;20040;-92
2021/10/04 00:44:59;;;;;;;15.90;8.55;;;;;;;16.26;88.56;99132.84;5075837;28;20440;-94
2021/10/04 00:47:25;;;;;;;17.45;7.88;;;;;;;16.22;88.38;99121.41;5075261;28;20135;-93
2021/10/04 00:49:50;;;;;;;16.55;8.98;;;;;;;16.34;87.74;99121.78;5075552;28;21224;-92
2021/10/04 00:52:16;;;;;;;16.38;8.13;;;;;;;16.36;87.74;99115.41;5075686;28;20080;-93
2021/10/04 00:54:44;;;;;;;14.48;7.28;;;;;;;16.32;87.46;99100.38;5075605;28;20051;-93
2021/10/04 00:57:10;;;;;;;18.17;8.48;;;;;;;16.40;86.92;99106.28;5076101;28;20494;-94
2021/10/04 00:59:36;;;;;;;19.38;8.10;;;;;;;16.50;86.46;99111.22;5078761;28;20067;-93
2021/10/04 01:02:02;;;;;;;17.08;7.97;;;;;;;16.49;85.70;99133.66;5078096;28;20091;-93
2021/10/04 01:04:28;;;;;;;17.20;7.90;;;;;;;16.39;85.15;99125.13;5077237;28;20563;-94
2021/10/04 01:06:55;;;;;;;16.65;8.60;;;;;;;16.23;85.39;99115.09;5075654;28;20036;-95
2021/10/04 01:09:21;;;;;;;15.85;8.25;;;;;;;16.02;85.75;99091.88;5075714;28;20045;-95
2021/10/04 01:11:48;;;;;;;13.32;7.68;;;;;;;15.91;86.87;99088.81;5075417;28;20059;-93
2021/10/04 01:14:14;;;;;;;15.13;8.35;;;;;;;16.09;88.35;99112.16;5075347;28;20040;-93
2021/10/04 01:16:40;;;;;;;15.38;8.15;;;;;;;16.17;87.69;99115.34;5076368;28;20062;-94
2021/10/04 01:19:06;;;;;;;16.48;7.95;;;;;;;16.17;87.83;99115.34;5075445;28;20073;-93
2021/10/04 01:21:33;;;;;;;18.25;8.52;;;;;;;15.96;88.12;99092.16;5073878;28;20033;-92
2021/10/04 01:23:59;;;;;;;15.35;8.10;;;;;;;15.97;87.77;99102.81;5075187;28;20040;-93
2021/10/04 01:26:25;;;;;;;22.35;8.88;;;;;;;15.85;88.31;99089.94;5075583;28;20066;-93
2021/10/04 01:28:51;;;;;;;15.07;8.27;;;;;;;15.74;88.33;99090.44;5075226;28;20040;-93
2021/10/04 01:34:18;;;;;;;16.23;8.43;;;;;;;15.75;88.98;99102.88;5154228;27;20382;-94
2021/10/04 01:36:44;;;;;;;15.32;8.20;;;;;;;15.68;89.22;99095.13;5154306;27;20062;-94
2021/10/04 01:39:10;;;;;;;15.32;7.53;;;;;;;15.78;89.34;99113.47;5153976;27;21476;-95
2021/10/04 01:41:36;;;;;;;18.17;8.05;;;;;;;15.78;88.92;99100.06;5153686;27;20095;-95
2021/10/04 01:44:02;;;;;;;15.73;7.97;;;;;;;15.82;88.69;99112.41;5153921;27;20111;-94
2021/10/04 01:46:28;;;;;;;14.63;7.68;;;;;;;15.90;89.22;99120.13;5153626;27;20046;-96
2021/10/04 01:48:53;;;;;;;14.85;7.60;;;;;;;15.92;88.78;99115.56;5155108;27;20043;-94
2021/10/04 01:51:21;;;;;;;14.93;7.80;;;;;;;15.89;88.90;99101.41;5154294;27;20381;-94
2021/10/04 01:53:47;;;;;;;14.43;8.00;;;;;;;15.88;88.85;99089.81;5153683;27;20049;-93
2021/10/04 01:56:13;;;;;;;16.45;8.80;;;;;;;15.88;89.53;99091.63;5153517;27;20504;-94
2021/10/04 01:58:39;;;;;;;18.33;8.43;;;;;;;15.86;89.79;99093.50;5154266;27;20039;-95
2021/10/04 02:01:06;;;;;;;18.65;8.45;;;;;;;15.80;89.38;99090.13;5153924;27;20056;-95
2021/10/04 02:03:32;;;;;;;16.00;8.38;;;;;;;15.87;88.67;99105.97;5154223;27;20042;-95
2021/10/04 02:05:58;;;;;;;16.45;8.40;;;;;;;15.76;89.49;99098.38;5153842;27;20035;-94
2021/10/04 02:08:25;;;;;;;15.45;7.78;;;;;;;15.64;89.47;99085.50;5153404;27;20045;-93
2021/10/04 02:10:51;;;;;;;14.90;8.00;;;;;;;15.64;89.43;99105.13;5156167;27;20407;-93
2021/10/04 02:13:17;;;;;;;14.88;8.57;;;;;;;15.50;88.93;99094.97;5153781;27;20097;-95
2021/10/04 02:15:44;;;;;;;16.13;7.88;;;;;;;15.52;89.28;99102.94;5152610;27;20512;-95
2021/10/04 02:18:11;;;;;;;13.68;8.10;;;;;;;15.44;89.34;99107.75;5153040;27;20035;-94
2021/10/04 02:20:41;;;;;;;16.58;8.20;;;;;;;15.38;90.14;99109.75;5153323;27;20369;-93
2021/10/04 02:23:09;;;;;;;16.10;7.90;;;;;;;15.20;90.00;99083.72;5153124;27;20081;-96
2021/10/04 02:25:37;;;;;;;17.95;9.00;;;;;;;15.27;90.86;99108.47;5152930;27;20122;-95
2021/10/04 02:28:04;;;;;;;14.93;8.23;;;;;;;15.27;91.45;99114.69;5152735;27;20051;-95
2021/10/04 02:30:30;;;;;;;19.23;9.20;;;;;;;15.24;92.43;99100.53;5151512;27;20091;-94
2021/10/04 02:32:56;;;;;;;18.15;8.02;;;;;;;15.38;92.11;99124.97;5152400;27;20388;-94
2021/10/04 02:35:23;;;;;;;14.98;7.93;;;;;;;15.43;91.72;99106.03;5151600;27;21044;-94
2021/10/04 02:37:49;;;;;;;17.25;8.07;;;;;;;15.39;91.42;99108.81;5152451;27;20063;-93
2021/10/04 02:40:16;;;;;;;19.73;8.90;;;;;;;15.38;91.82;99109.75;5152157;27;20136;-95
2021/10/04 02:42:43;;;;;;;17.40;8.55;;;;;;;15.35;91.86;99101.88;5152412;27;20031;-94
2021/10/04 02:45:12;;;;;;;16.15;8.88;;;;;;;15.25;92.26;99091.59;5139804;27;20146;-94
2021/10/04 02:47:38;;;;;;;17.10;8.60;;;;;;;15.24;92.19;99089.81;5140014;27;20100;-94
2021/10/04 02:50:06;;;;;;;16.70;9.02;;;;;;;15.27;92.35;99105.78;5138375;27;20058;-92
2021/10/04 02:52:32;;;;;;;21.93;8.93;;;;;;;15.30;92.74;99117.22;5137995;27;20063;-94
2021/10/04 02:54:58;;;;;;;16.35;9.15;;;;;;;15.31;92.31;99120.78;5138256;27;20742;-93
2021/10/04 02:57:24;;;;;;;16.65;8.88;;;;;;;15.17;92.46;99094.56;5137250;27;20039;-93
2021/10/04 02:59:51;;;;;;;16.42;7.95;;;;;;;15.08;92.62;99093.13;5138251;27;20053;-94
2021/10/04 03:02:17;;;;;;;19.20;9.20;;;;;;;15.09;92.80;99092.19;5137363;27;20040;-92
2021/10/04 03:04:43;;;;;;;19.42;8.63;;;;;;;15.10;92.61;99093.94;5137798;27;20583;-95
2021/10/04 03:07:09;;;;;;;17.23;8.85;;;;;;;15.10;92.20;99099.28;5137533;27;20071;-94
2021/10/04 03:09:35;;;;;;;18.35;9.20;;;;;;;15.02;92.37;99095.19;5138163;27;20047;-95
2021/10/04 03:12:01;;;;;;;15.93;8.63;;;;;;;14.96;92.23;99091.81;5137807;27;20043;-93
2021/10/04 03:14:27;;;;;;;20.33;8.90;;;;;;;14.99;92.09;99113.13;5137540;27;20122;-96
2021/10/04 03:16:55;;;;;;;19.48;9.18;;;;;;;14.81;92.13;99080.81;5137360;27;20381;-93
2021/10/04 03:19:20;;;;;;;17.73;9.27;;;;;;;14.86;92.43;99087.75;5137493;27;20557;-94
2021/10/04 03:21:46;;;;;;;20.23;8.93;;;;;;;14.88;93.16;99101.09;5137375;27;20031;-94
2021/10/04 03:24:15;;;;;;;19.23;9.73;;;;;;;14.90;92.45;99108.13;5138309;27;20054;-94
2021/10/04 03:26:41;;;;;;;19.70;9.30;;;;;;;14.69;92.86;99087.53;5137612;27;20043;-95
2021/10/04 03:29:07;;;;;;;17.00;9.75;;;;;;;14.70;93.61;99086.59;5137452;27;20336;-94
2021/10/04 03:31:33;;;;;;;15.77;8.90;;;;;;;14.74;93.16;99094.44;5137404;27;20098;-93
2021/10/04 03:34:00;;;;;;;18.40;9.15;;;;;;;14.76;93.06;99094.41;5137595;27;20459;-94
2021/10/04 03:36:26;;;;;;;20.35;10.20;;;;;;;14.81;93.38;99083.50;5137610;27;20070;-92
2021/10/04 03:38:53;;;;;;;21.10;9.63;;;;;;;15.04;92.47;99093.31;5137346;27;20059;-94
2021/10/04 03:41:19;;;;;;;18.70;9.02;;;;;;;15.05;92.17;99085.22;5136689;27;20039;-93
2021/10/04 03:43:45;;;;;;;20.67;10.05;;;;;;;15.17;91.22;99092.75;5137906;27;20058;-93
2021/10/04 03:46:11;;;;;;;17.77;9.65;;;;;;;15.03;90.66;99072.81;5139103;27;20047;-93
2021/10/04 03:48:37;;;;;;;21.67;8.80;;;;;;;14.92;91.03;99067.88;5138082;27;20050;-93
2021/10/04 03:51:04;;;;;;;20.40;9.00;;;;;;;14.97;91.16;99082.84;5137679;27;20496;-95
2021/10/04 03:53:30;;;;;;;17.08;8.57;;;;;;;14.91;91.35;99083.09;5138163;27;20134;-96
2021/10/04 03:55:56;;;;;;;21.38;10.05;;;;;;;14.82;92.46;99091.47;5131797;27;20110;-94
2021/10/04 03:58:22;;;;;;;19.50;9.85;;;;;;;14.76;92.43;99089.03;5137498;27;20485;-94
2021/10/04 04:00:47;;;;;;;17.80;9.52;;;;;;;14.73;92.17;99092.72;5136881;27;20118;-94
2021/10/04 04:03:13;;;;;;;17.90;9.20;;;;;;;14.65;92.43;99085.91;5137309;27;20043;-95
2021/10/04 04:05:39;;;;;;;22.10;9.60;;;;;;;14.70;91.98;99105.34;5136974;27;20078;-94
2021/10/04 04:08:07;;;;;;;15.77;9.15;;;;;;;14.69;91.90;99106.28;5137234;27;20043;-95
2021/10/04 04:10:33;;;;;;;19.10;9.35;;;;;;;14.55;92.43;99080.03;5136788;27;20381;-93
2021/10/04 04:12:59;;;;;;;21.67;10.10;;;;;;;14.56;92.73;99087.16;5136874;27;20042;-93
2021/10/04 04:15:25;;;;;;;18.13;9.35;;;;;;;14.57;92.35;99088.88;5136605;27;20087;-94
2021/10/04 04:17:51;;;;;;;23.33;9.02;;;;;;;14.50;92.78;99082.84;5137637;27;20039;-94
2021/10/04 04:20:17;;;;;;;20.27;9.38;;;;;;;14.44;92.99;99071.50;5139775;27;20518;-93
2021/10/04 04:22:44;;;;;;;22.88;10.30;;;;;;;14.53;92.70;99093.47;5138656;27;20101;-94
2021/10/04 04:25:12;;;;;;;20.30;9.55;;;;;;;14.37;92.84;99071.75;5137017;27;20046;-92
2021/10/04 04:27:38;;;;;;;19.27;9.60;;;;;;;14.55;93.29;99090.72;5137803;27;20129;-96
2021/10/04 04:30:06;;;;;;;19.60;9.32;;;;;;;14.47;93.11;99088.34;5137194;27;20064;-95
2021/10/04 04:32:32;;;;;;;18.67;9.77;;;;;;;14.53;92.56;99089.88;5136494;27;20043;-94
2021/10/04 04:34:57;;;;;;;18.48;9.32;;;;;;;14.54;92.60;99088.97;5136365;27;20039;-94
2021/10/04 04:37:23;;;;;;;17.50;8.88;;;;;;;14.38;92.68;99064.59;5137822;27;20073;-93
2021/10/04 04:39:49;;;;;;;19.25;9.23;;;;;;;14.51;93.03;99094.44;5137298;27;20062;-94
2021/10/04 04:42:17;;;;;;;18.23;9.07;;;;;;;14.37;92.66;99065.53;5138873;27;20046;-96
2021/10/04 04:44:43;;;;;;;18.58;9.00;;;;;;;14.49;92.50;99090.97;5137870;27;20046;-94
2021/10/04 04:47:09;;;;;;;24.38;10.10;;;;;;;14.53;93.93;99081.84;5136159;27;20442;-93
2021/10/04 04:49:34;;;;;;;21.50;10.20;;;;;;;14.72;93.17;99087.41;5136206;27;20369;-93
2021/10/04 04:52:00;;;;;;;19.20;8.85;;;;;;;14.63;92.28;99061.88;5138160;27;20080;-93
2021/10/04 04:54:27;;;;;;;21.80;10.13;;;;;;;14.79;92.99;99084.44;5136703;27;20043;-95
2021/10/04 04:59:55;;;;;;;20.15;8.82;;;;;;;14.73;90.76;99073.13;5114684;27;20380;-94
2021/10/04 05:02:21;;;;;;;20.30;9.95;;;;;;;14.78;93.54;99073.78;5111901;28;20111;-92
2021/10/04 05:04:46;;;;;;;22.98;9.65;;;;;;;14.85;92.95;99067.25;5113023;28;20501;-94
2021/10/04 05:07:12;;;;;;;19.60;9.90;;;;;;;14.90;92.72;99075.13;5112476;28;20123;-93
2021/10/04 05:09:38;;;;;;;19.05;9.65;;;;;;;14.99;92.70;99086.34;5111887;28;20048;-93
2021/10/04 05:12:05;;;;;;;23.23;10.20;;;;;;;15.02;92.83;99087.16;5112626;28;20043;-93
2021/10/04 05:14:31;;;;;;;20.17;10.10;;;;;;;14.96;93.29;99082.91;5115192;28;20039;-92
2021/10/04 05:16:58;;;;;;;22.58;10.73;;;;;;;14.85;93.04;99059.22;5116098;28;20039;-94
2021/10/04 05:19:24;;;;;;;20.63;10.00;;;;;;;14.97;93.34;99077.50;5118506;28;20036;-94
2021/10/04 05:21:50;;;;;;;23.10;10.40;;;;;;;14.99;92.84;99085.47;5115132;28;20048;-94
2021/10/04 05:24:16;;;;;;;21.55;9.93;;;;;;;14.92;93.02;99081.28;5116813;28;20032;-94
2021/10/04 05:26:43;;;;;;;22.40;10.63;;;;;;;14.85;92.41;99072.59;5116238;28;20040;-94
2021/10/04 05:29:09;;;;;;;18.30;9.93;;;;;;;14.75;91.97;99074.78;5115027;28;20135;-94
2021/10/04 05:31:35;;;;;;;20.08;9.45;;;;;;;14.65;93.06;99086.78;5113089;28;20116;-94
2021/10/04 05:34:03;;;;;;;20.58;10.38;;;;;;;14.56;93.55;99065.72;5115561;28;20520;-94
2021/10/04 05:36:29;;;;;;;18.58;9.85;;;;;;;14.68;93.29;99080.44;5116608;28;20069;-93
2021/10/04 05:38:55;;;;;;;21.75;10.23;;;;;;;14.86;93.51;99095.78;5113639;28;20047;-92
2021/10/04 05:41:21;;;;;;;20.63;9.68;;;;;;;14.98;93.26;99100.66;5115522;28;20039;-93
2021/10/04 05:43:47;;;;;;;20.02;10.70;;;;;;;15.02;92.68;99097.84;5114539;28;20046;-93
2021/10/04 05:46:13;;;;;;;19.90;9.30;;;;;;;15.07;92.60;99103.88;5114494;28;20509;-93
2021/10/04 05:48:39;;;;;;;18.73;9.13;;;;;;;15.09;92.20;99102.03;5114735;28;20370;-94
2021/10/04 05:51:06;;;;;;;18.58;9.23;;;;;;;15.22;90.63;99091.69;5115120;28;20039;-93
2021/10/04 05:53:32;;;;;;;19.60;8.95;;;;;;;15.34;90.64;99112.63;5108398;28;20035;-94
2021/10/04 05:55:58;;;;;;;20.00;9.90;;;;;;;15.44;90.46;99110.44;5114442;28;20508;-93
2021/10/04 05:58:24;;;;;;;18.30;9.25;;;;;;;15.46;90.30;99112.13;5112831;28;20036;-95
2021/10/04 06:00:50;;;;;;;19.58;9.07;;;;;;;15.50;90.03;99105.69;5111547;28;20044;-93
2021/10/04 06:03:16;;;;;;;17.30;8.93;;;;;;;15.67;88.98;99109.47;5111232;28;20036;-94
2021/10/04 06:05:42;;;;;;;16.92;8.90;;;;;;;15.80;88.26;99121.44;5111976;28;20036;-93
2021/10/04 06:08:10;;;;;;;17.55;9.38;;;;;;;15.80;87.72;99111.59;5114543;28;20040;-94
2021/10/04 06:10:36;;;;;;;18.08;9.82;;;;;;;15.93;87.29;99117.31;5103495;28;20044;-93
2021/10/04 06:13:02;;;;;;;16.13;8.70;;;;;;;15.94;86.40;99102.97;5102189;28;20039;-94
2021/10/04 06:15:28;;;;;;;16.83;9.43;;;;;;;16.16;86.45;99142.28;5100118;28;20043;-93
2021/10/04 06:17:54;;;;;;;19.95;9.43;;;;;;;16.17;86.29;99119.84;5101528;28;20032;-93
2021/10/04 06:20:20;;;;;;;18.05;9.43;;;;;;;16.20;85.39;99104.50;5101651;28;20032;-93
2021/10/04 06:22:47;;;;;;;16.83;9.32;;;;;;;16.22;84.94;99108.00;5099738;28;20040;-93
2021/10/04 06:25:17;;;;;;;19.42;9.80;;;;;;;16.35;84.65;99126.19;5100553;28;20051;-93
2021/10/04 06:27:45;;;;;;;18.40;8.52;;;;;;;16.35;84.96;99126.19;5100796;28;21071;-94
2021/10/04 06:30:12;;;;;;;21.70;9.50;;;;;;;16.25;85.50;99127.56;5100988;28;20035;-94
2021/10/04 06:32:38;;;;;;;18.80;9.80;;;;;;;16.25;85.42;99138.31;5102031;28;20044;-94
2021/10/04 06:35:05;;;;;;;18.98;9.88;;;;;;;16.12;85.47;99111.16;5101468;28;20058;-93
2021/10/04 06:37:31;;;;;;;19.95;9.75;;;;;;;16.35;85.79;99151.25;5102121;28;20039;-94
2021/10/04 06:39:56;;;;;;;19.70;10.50;;;;;;;16.42;84.90;99138.44;5101041;28;20131;-94
2021/10/04 06:45:24;;;;;;;23.48;11.43;;;;;;;16.66;84.04;99133.75;5134660;27;20402;-94
2021/10/04 06:47:50;;;;;;;20.30;10.40;;;;;;;16.65;83.47;99126.63;5136996;28;20035;-94
2021/10/04 06:50:20;;;;;;;21.13;10.95;;;;;;;16.78;83.42;99148.41;5137523;27;20047;-94
2021/10/04 06:52:57;;;;;;;21.67;10.55;;;;;;;16.95;81.54;99148.53;5140064;27;20031;-95
2021/10/04 06:56:10;;;;;;;20.00;10.32;;;;;;;17.11;80.74;99131.66;5126478;28;20043;-94
2021/10/04 06:58:38;;;;;;;19.88;10.05;;;;;;;17.23;79.79;99125.72;5138055;28;20443;-95
2021/10/04 07:01:06;;;;;;;21.45;10.55;;;;;;;17.24;79.69;99119.41;5136410;28;20058;-95
2021/10/04 07:03:35;;;;;;;19.25;10.80;;;;;;;17.42;78.42;99160.66;5136442;27;20100;-94
2021/10/04 07:06:01;;;;;;;14.85;8.35;;;;;;;17.50;77.42;99136.06;5137133;28;20114;-95
2021/10/04 07:08:27;;;;;;;18.45;8.18;;;;;;;17.72;74.70;99155.56;5134451;28;20051;-94
2021/10/04 07:10:53;;;;;;;16.17;8.18;;;;;;;17.68;73.28;99151.28;5136621;27;20485;-94
2021/10/04 07:13:19;;;;;;;14.30;7.95;;;;;;;17.58;72.81;99155.38;5132321;27;20036;-94
2021/10/04 07:15:45;;;;;;;17.45;8.65;;;;;;;17.41;73.51;99151.72;5132509;28;20043;-93
2021/10/04 07:18:13;;;;;;;16.42;8.07;;;;;;;17.30;74.43;99153.16;5136959;28;20119;-94
2021/10/04 07:20:39;;;;;;;16.02;8.10;;;;;;;17.31;74.20;99153.09;5137416;28;20048;-93
2021/10/04 07:23:05;;;;;;;15.25;8.25;;;;;;;17.38;73.86;99151.84;5136069;28;20106;-94
2021/10/04 07:25:31;;;;;;;14.73;8.18;;;;;;;17.36;74.22;99161.81;5137139;27;20065;-92
2021/10/04 07:27:57;;;;;;;14.55;7.93;;;;;;;17.50;73.66;99162.94;5134202;28;20122;-94
2021/10/04 07:30:23;;;;;;;16.30;8.20;;;;;;;17.63;73.90;99175.72;5136193;27;20071;-91
2021/10/04 07:32:49;;;;;;;17.13;8.65;;;;;;;17.40;74.86;99159.84;5134372;27;20046;-92
2021/10/04 07:35:17;;;;;;;14.80;8.18;;;;;;;17.70;73.11;99160.16;5133684;28;20039;-94
2021/10/04 07:37:43;;;;;;;15.77;8.52;;;;;;;18.22;71.59;99178.19;5134188;28;20044;-93
2021/10/04 07:40:11;;;;;;;13.27;7.63;;;;;;;18.52;68.80;99153.28;5133778;28;20100;-94
2021/10/04 07:42:37;;;;;;;17.42;8.15;;;;;;;18.72;68.51;99168.38;5132971;28;20044;-94
2021/10/04 07:45:05;;;;;;;12.35;7.63;;;;;;;18.94;66.24;99150.09;5135934;28;20057;-95
2021/10/04 07:47:31;;;;;;;13.00;7.43;;;;;;;19.03;65.89;99135.25;5134917;28;20103;-94
2021/10/04 07:49:57;;;;;;;15.88;7.78;;;;;;;19.30;65.82;99151.72;5131897;28;20433;-92
2021/10/04 07:52:24;;;;;;;15.30;8.40;;;;;;;19.32;65.44;99130.88;5131630;28;20048;-96
2021/10/04 07:54:50;;;;;;;12.90;7.57;;;;;;;19.56;64.15;99141.22;5128748;27;20060;-94
2021/10/04 07:57:16;;;;;;;12.00;7.72;;;;;;;19.59;63.95;99127.59;5117933;28;20075;-94
2021/10/04 07:59:43;;;;;;;16.13;7.70;;;;;;;19.88;64.56;99148.34;5118268;28;20050;-95
2021/10/04 08:02:09;;;;;;;12.40;7.07;;;;;;;19.93;63.42;99121.09;5118159;27;20047;-94
2021/10/04 08:04:36;;;;;;;11.13;7.20;;;;;;;19.97;62.70;99140.66;5118029;27;20036;-93
2021/10/04 08:07:03;;;;;;;13.55;7.28;;;;;;;19.98;64.14;99153.22;5118107;28;20054;-94
2021/10/04 08:09:31;;;;;;;12.30;7.32;;;;;;;20.18;62.43;99142.06;5117364;28;20032;-94
2021/10/04 08:11:57;;;;;;;15.82;7.80;;;;;;;19.51;63.71;99119.91;5117180;28;20384;-93
2021/10/04 08:14:24;;;;;;;13.82;7.88;;;;;;;19.68;62.91;99135.13;5114519;28;20036;-93
2021/10/04 08:16:49;;;;;;;14.50;7.75;;;;;;;19.62;62.58;99140.88;5116389;28;20048;-94
2021/10/04 08:19:16;;;;;;;13.18;7.13;;;;;;;19.54;62.92;99132.34;5117065;28;20131;-92
2021/10/04 08:21:42;;;;;;;14.50;7.47;;;;;;;20.01;62.68;99150.31;5117661;28;20039;-93
2021/10/04 08:24:08;;;;;;;14.77;7.95;;;;;;;20.22;62.07;99138.22;5117821;28;20048;-95
2021/10/04 08:26:50;;;;;;;15.50;8.30;;;;;;;20.46;60.85;99125.03;5119360;28;20096;-94
2021/10/04 08:29:16;;;;;;;14.40;8.02;;;;;;;20.74;60.88;99142.28;5116866;28;20035;-94
2021/10/04 08:31:42;;;;;;;14.02;8.25;;;;;;;20.83;59.40;99111.94;5117347;28;20562;-94
2021/10/04 08:34:08;;;;;;;17.42;8.63;;;;;;;21.02;59.33;99127.00;5117420;28;20039;-94
2021/10/04 08:36:34;;;;;;;13.75;7.60;;;;;;;21.03;59.46;99121.47;5117879;28;20046;-94
2021/10/04 08:39:02;;;;;;;14.95;7.95;;;;;;;21.21;57.73;99130.25;5117049;28;20039;-94
2021/10/04 08:41:28;;;;;;;14.57;8.45;;;;;;;20.78;60.14;99133.00;5116699;28;20051;-92
2021/10/04 08:43:58;;;;;;;13.50;8.13;;;;;;;20.77;60.86;99146.59;5116412;28;20046;-92
2021/10/04 08:46:24;;;;;;;14.50;8.32;;;;;;;20.97;61.43;99135.41;5113504;28;20057;-94
2021/10/04 08:48:50;;;;;;;13.85;8.13;;;;;;;21.30;59.59;99132.34;5118553;28;20032;-95
2021/10/04 08:51:16;;;;;;;13.57;7.97;;;;;;;21.44;59.53;99120.66;5116971;28;20074;-94
2021/10/04 08:53:44;;;;;;;15.75;8.43;;;;;;;21.17;59.71;99115.19;5116353;28;20040;-93
2021/10/04 08:56:10;;;;;;;14.60;8.23;;;;;;;21.65;59.47;99112.09;5116584;28;20126;-93
2021/10/04 08:58:36;;;;;;;15.20;8.18;;;;;;;21.80;58.03;99111.03;5116541;28;20096;-92
2021/10/04 09:01:05;;;;;;;16.13;8.00;;;;;;;21.91;58.02;99105.75;5118084;28;20175;-95
2021/10/04 09:03:42;;;;;;;13.43;7.32;;;;;;;22.27;56.95;99111.47;5119048;27;20038;-95
2021/10/04 09:06:22;;;;;;;14.35;8.20;;;;;;;22.27;55.83;99082.56;5117239;28;20126;-94
2021/10/04 09:08:52;;;;;;;12.73;7.40;;;;;;;22.55;56.39;99096.84;5117271;28;20470;-93
2021/10/04 09:11:28;;;;;;;15.57;7.53;;;;;;;22.73;55.64;99084.69;5116636;28;20047;-94
2021/10/04 09:13:54;;;;;;;14.15;7.72;;;;;;;22.77;55.15;99069.94;5117801;28;20082;-95
2021/10/04 09:16:21;;;;;;;12.65;7.95;;;;;;;22.92;54.46;99072.50;5118192;28;20557;-95
2021/10/04 09:18:47;;;;;;;14.52;7.45;;;;;;;22.77;55.09;99074.50;5118502;28;20050;-94
2021/10/04 09:21:14;;;;;;;13.82;8.85;;;;;;;22.55;54.61;99073.34;5118703;28;20475;-94
2021/10/04 09:23:48;;;;;;;13.13;8.10;;;;;;;22.64;56.37;99070.91;5116875;28;20067;-94
2021/10/04 09:26:35;;;;;;;12.10;7.28;;;;;;;22.80;55.44;99068.00;5117576;28;20050;-94
2021/10/04 09:29:03;;;;;;;12.85;7.43;;;;;;;23.02;54.45;99083.59;5116758;28;20047;-94
2021/10/04 09:31:33;;;;;;;14.93;8.05;;;;;;;22.77;54.93;99069.94;5116187;28;20048;-94
2021/10/04 09:34:06;;;;;;;17.02;8.00;;;;;;;23.09;54.34;99077.56;5116534;28;20044;-94
2021/10/04 09:36:34;;;;;;;13.25;7.72;;;;;;;23.17;53.99;99080.59;5117687;28;20084;-94
2021/10/04 09:39:12;;;;;;;12.20;7.18;;;;;;;23.40;54.28;99080.75;5117122;28;20036;-93
2021/10/04 09:41:56;;;;;;;12.25;7.22;;;;;;;23.58;52.60;99090.19;5115794;28;20046;-94
2021/10/04 09:44:22;;;;;;;13.98;7.47;;;;;;;23.40;52.94;99077.16;5115555;28;20055;-94
2021/10/04 09:46:50;;;;;;;15.45;7.50;;;;;;;23.34;52.56;99067.63;5115625;28;20055;-94
2021/10/04 09:49:16;;;;;;;13.15;8.02;;;;;;;23.14;53.61;99064.56;5119182;28;20046;-96
2021/10/04 09:51:51;;;;;;;12.32;7.30;;;;;;;23.25;53.91;99082.75;5117353;28;20040;-94
2021/10/04 09:54:17;;;;;;;11.55;7.97;;;;;;;23.26;53.77;99075.47;5116240;28;20038;-94
2021/10/04 09:56:44;;;;;;;17.55;7.78;;;;;;;23.56;53.25;99075.88;5119200;28;20496;-95
2021/10/04 09:59:10;;;;;;;12.73;7.20;;;;;;;23.46;53.06;99066.69;5116864;28;20047;-94
2021/10/04 10:01:36;;;;;;;13.55;7.82;;;;;;;23.72;53.02;99082.84;5116069;28;20366;-94
2021/10/04 10:04:04;;;;;;;14.13;7.90;;;;;;;23.84;52.73;99084.66;5116566;28;20042;-95
2021/10/04 10:06:33;;;;;;;15.07;8.23;;;;;;;23.79;52.31;99054.28;5116732;28;20067;-94
2021/10/04 10:08:59;;;;;;;12.55;7.78;;;;;;;23.66;51.26;99058.88;5117769;28;20073;-94
2021/10/04 10:11:28;;;;;;;12.40;7.72;;;;;;;23.81;51.81;99065.88;5115740;28;20504;-95
2021/10/04 10:13:54;;;;;;;11.70;7.72;;;;;;;23.98;51.43;99056.44;5116082;28;20084;-94
2021/10/04 10:16:27;;;;;;;11.55;7.40;;;;;;;24.16;50.89;99065.88;5115578;28;20047;-94
2021/10/04 10:19:00;;;;;;;14.68;7.75;;;;;;;24.23;50.17;99057.25;5115581;28;20043;-93
2021/10/04 10:21:29;;;;;;;15.63;7.32;;;;;;;24.16;50.26;99051.44;5119340;28;20036;-96
2021/10/04 10:23:57;;;;;;;12.02;7.40;;;;;;;24.26;48.73;99046.13;5117167;28;20043;-94
2021/10/04 10:26:36;;;;;;;11.15;7.18;;;;;;;24.37;49.08;99046.97;5117121;28;20104;-94
2021/10/04 10:29:26;;;;;;;11.77;6.78;;;;;;;24.23;49.27;99049.94;5116946;28;20032;-93
2021/10/04 10:32:10;;;;;;;10.45;6.60;;;;;;;24.25;49.82;99045.25;5120864;28;20051;-95
2021/10/04 10:34:53;;;;;;;15.80;7.03;;;;;;;24.28;49.03;99044.16;5120176;28;20055;-94
2021/10/04 10:37:25;;;;;;;10.75;5.68;;;;;;;24.37;47.43;99051.56;5121380;28;20051;-92
2021/10/04 10:39:55;;;;;;;8.88;5.63;;;;;;;24.71;46.71;99047.03;5116214;28;20043;-94
2021/10/04 10:42:23;;;;;;;10.63;5.65;;;;;;;24.90;47.11;99048.28;5116570;28;20065;-95
2021/10/04 10:45:13;;;;;;;7.55;5.18;;;;;;;24.82;44.80;99057.03;5119686;28;20040;-95
2021/10/04 10:47:55;;;;;;;9.57;5.68;;;;;;;24.76;45.18;99014.88;5123715;28;20051;-96
2021/10/04 10:50:42;;;;;;;10.65;5.18;;;;;;;24.74;44.92;99005.13;5122735;28;20354;-95
2021/10/04 10:53:28;;;;;;;8.73;5.80;;;;;;;24.61;45.18;98994.38;5125210;28;20058;-96
2021/10/04 10:55:57;;;;;;;12.75;5.72;;;;;;;24.70;45.59;98995.47;5125171;28;20044;-95
2021/10/04 10:59:15;;;;;;;10.02;5.40;;;;;;;25.00;44.81;99036.50;5130639;28;20065;-95
2021/10/04 11:02:37;;;;;;;8.95;5.55;;;;;;;24.85;44.61;99004.25;5125392;28;20084;-94
2021/10/04 11:05:55;;;;;;;7.88;5.30;;;;;;;24.77;45.36;99024.78;5110383;28;20051;-95
2021/10/04 11:08:53;;;;;;;9.02;5.63;;;;;;;24.72;44.07;98993.50;5102121;28;20051;-95
2021/10/04 11:11:20;;;;;;;8.93;6.00;;;;;;;24.81;44.79;99000.94;5104915;28;20044;-96
2021/10/04 11:14:11;;;;;;;8.98;5.28;;;;;;;24.85;44.33;98996.94;5108406;28;20042;-96
2021/10/04 11:16:42;;;;;;;7.75;5.13;;;;;;;24.94;44.15;98998.03;5123036;28;20054;-95
2021/10/04 11:19:21;;;;;;;7.93;5.22;;;;;;;24.93;44.43;98985.44;5124063;28;20047;-95
2021/10/04 11:21:49;;;;;;;8.45;5.22;;;;;;;25.04;44.28;98984.53;5125617;28;20451;-94
2021/10/04 11:24:26;;;;;;;9.32;5.43;;;;;;;25.05;44.06;98991.69;5127522;28;20103;-96
2021/10/04 11:26:54;;;;;;;11.70;5.38;;;;;;;25.13;42.60;98972.88;5127811;28;20039;-96
2021/10/04 11:29:21;;;;;;;10.75;5.35;;;;;;;25.26;42.17;98975.47;5123291;28;20052;-93
2021/10/04 11:31:54;;;;;;;7.88;4.80;;;;;;;25.39;41.61;98990.66;5127029;28;20066;-95
2021/10/04 11:34:21;;;;;;;10.27;5.28;;;;;;;25.35;42.40;98991.00;5126546;28;20043;-95
2021/10/04 11:36:49;;;;;;;8.77;4.93;;;;;;;25.11;41.58;98973.03;5125235;28;20490;-95
2021/10/04 11:39:19;;;;;;;8.32;4.20;;;;;;;25.33;41.34;98993.00;5122853;28;20040;-94